sensor_id;sensor_type;location;lat;lon;timestamp;P1;durP1;ratioP1;P2;durP2;ratioP2
60292;SDS011;52402;52.670;6.750;2024-02-04T00:00:44;35.22;;;33.53;;
60292;SDS011;52402;52.670;6.750;2024-02-04T00:03:10;36.65;;;34.85;;
60292;SDS011;52402;52.670;6.750;2024-02-04T00:05:36;36.67;;;34.88;;
60292;SDS011;52402;52.670;6.750;2024-02-04T00:08:02;34.55;;;32.85;;
60292;SDS011;52402;52.670;6.750;2024-02-04T00:10:29;32.58;;;30.98;;
60292;SDS011;52402;52.670;6.750;2024-02-04T00:12:54;33.38;;;31.77;;
60292;SDS011;52402;52.670;6.750;2024-02-04T00:15:20;32.92;;;31.33;;
60292;SDS011;52402;52.670;6.750;2024-02-04T00:17:46;31.63;;;30.13;;
60292;SDS011;52402;52.670;6.750;2024-02-04T00:20:12;32.00;;;30.45;;
60292;SDS011;52402;52.670;6.750;2024-02-04T00:22:37;30.38;;;28.88;;
60292;SDS011;52402;52.670;6.750;2024-02-04T00:25:04;30.52;;;29.02;;
60292;SDS011;52402;52.670;6.750;2024-02-04T00:27:33;30.58;;;29.08;;
60292;SDS011;52402;52.670;6.750;2024-02-04T00:29:59;30.33;;;28.85;;
60292;SDS011;52402;52.670;6.750;2024-02-04T00:32:25;30.65;;;29.15;;
60292;SDS011;52402;52.670;6.750;2024-02-04T00:34:51;30.95;;;29.45;;
60292;SDS011;52402;52.670;6.750;2024-02-04T00:37:17;30.08;;;28.67;;
60292;SDS011;52402;52.670;6.750;2024-02-04T00:39:43;29.65;;;28.25;;
60292;SDS011;52402;52.670;6.750;2024-02-04T00:42:09;29.92;;;28.52;;
60292;SDS011;52402;52.670;6.750;2024-02-04T00:44:35;29.13;;;27.73;;
60292;SDS011;52402;52.670;6.750;2024-02-04T00:47:01;29.33;;;27.92;;
60292;SDS011;52402;52.670;6.750;2024-02-04T00:49:26;28.92;;;27.52;;
60292;SDS011;52402;52.670;6.750;2024-02-04T00:51:52;30.35;;;28.85;;
60292;SDS011;52402;52.670;6.750;2024-02-04T00:54:18;29.88;;;28.42;;
60292;SDS011;52402;52.670;6.750;2024-02-04T00:56:44;29.70;;;28.30;;
60292;SDS011;52402;52.670;6.750;2024-02-04T00:59:10;29.75;;;28.35;;
60292;SDS011;52402;52.670;6.750;2024-02-04T01:01:36;29.55;;;28.15;;
60292;SDS011;52402;52.670;6.750;2024-02-04T01:04:01;29.95;;;28.55;;
60292;SDS011;52402;52.670;6.750;2024-02-04T01:06:27;28.65;;;27.25;;
60292;SDS011;52402;52.670;6.750;2024-02-04T01:08:54;28.90;;;27.52;;
60292;SDS011;52402;52.670;6.750;2024-02-04T01:11:21;29.90;;;28.50;;
60292;SDS011;52402;52.670;6.750;2024-02-04T01:13:46;28.65;;;27.25;;
60292;SDS011;52402;52.670;6.750;2024-02-04T01:16:12;28.25;;;26.95;;
60292;SDS011;52402;52.670;6.750;2024-02-04T01:18:38;28.80;;;27.40;;
60292;SDS011;52402;52.670;6.750;2024-02-04T01:21:03;29.88;;;28.48;;
60292;SDS011;52402;52.670;6.750;2024-02-04T01:23:29;29.25;;;27.85;;
60292;SDS011;52402;52.670;6.750;2024-02-04T01:25:55;28.98;;;27.58;;
60292;SDS011;52402;52.670;6.750;2024-02-04T01:28:20;28.02;;;26.73;;
60292;SDS011;52402;52.670;6.750;2024-02-04T01:30:46;28.38;;;27.08;;
60292;SDS011;52402;52.670;6.750;2024-02-04T01:33:11;27.35;;;26.05;;
60292;SDS011;52402;52.670;6.750;2024-02-04T01:35:37;26.65;;;25.42;;
60292;SDS011;52402;52.670;6.750;2024-02-04T01:38:03;26.70;;;25.42;;
60292;SDS011;52402;52.670;6.750;2024-02-04T01:40:29;26.30;;;25.10;;
60292;SDS011;52402;52.670;6.750;2024-02-04T01:42:54;27.35;;;26.05;;
60292;SDS011;52402;52.670;6.750;2024-02-04T01:45:21;25.75;;;24.55;;
60292;SDS011;52402;52.670;6.750;2024-02-04T01:47:47;24.67;;;23.48;;
60292;SDS011;52402;52.670;6.750;2024-02-04T01:50:13;25.52;;;24.33;;
60292;SDS011;52402;52.670;6.750;2024-02-04T01:52:40;24.58;;;23.38;;
60292;SDS011;52402;52.670;6.750;2024-02-04T01:55:07;27.50;;;26.20;;
60292;SDS011;52402;52.670;6.750;2024-02-04T01:57:33;26.50;;;25.23;;
60292;SDS011;52402;52.670;6.750;2024-02-04T02:00:03;27.30;;;26.00;;
60292;SDS011;52402;52.670;6.750;2024-02-04T02:02:29;28.42;;;27.13;;
60292;SDS011;52402;52.670;6.750;2024-02-04T02:04:56;28.63;;;27.27;;
60292;SDS011;52402;52.670;6.750;2024-02-04T02:07:23;28.23;;;26.92;;
60292;SDS011;52402;52.670;6.750;2024-02-04T02:09:52;30.48;;;29.02;;
60292;SDS011;52402;52.670;6.750;2024-02-04T02:12:18;29.38;;;27.98;;
60292;SDS011;52402;52.670;6.750;2024-02-04T02:14:54;30.00;;;28.60;;
60292;SDS011;52402;52.670;6.750;2024-02-04T02:17:30;30.92;;;29.42;;
60292;SDS011;52402;52.670;6.750;2024-02-04T02:20:06;30.88;;;29.38;;
60292;SDS011;52402;52.670;6.750;2024-02-04T02:25:32;32.55;;;30.95;;
60292;SDS011;52402;52.670;6.750;2024-02-04T02:28:01;34.13;;;32.42;;
60292;SDS011;52402;52.670;6.750;2024-02-04T02:30:26;34.38;;;32.67;;
60292;SDS011;52402;52.670;6.750;2024-02-04T02:32:52;32.90;;;31.30;;
60292;SDS011;52402;52.670;6.750;2024-02-04T02:35:18;34.38;;;32.67;;
60292;SDS011;52402;52.670;6.750;2024-02-04T02:37:59;35.03;;;33.33;;
60292;SDS011;52402;52.670;6.750;2024-02-04T02:40:37;35.92;;;34.13;;
60292;SDS011;52402;52.670;6.750;2024-02-04T02:43:07;34.38;;;32.67;;
60292;SDS011;52402;52.670;6.750;2024-02-04T02:45:35;36.42;;;34.63;;
60292;SDS011;52402;52.670;6.750;2024-02-04T02:48:03;37.15;;;35.35;;
60292;SDS011;52402;52.670;6.750;2024-02-04T02:53:16;33.08;;;31.48;;
60292;SDS011;52402;52.670;6.750;2024-02-04T02:55:44;32.90;;;31.30;;
60292;SDS011;52402;52.670;6.750;2024-02-04T02:58:11;31.55;;;30.05;;
60292;SDS011;52402;52.670;6.750;2024-02-04T03:00:37;31.65;;;30.15;;
60292;SDS011;52402;52.670;6.750;2024-02-04T03:03:04;32.65;;;31.05;;
60292;SDS011;52402;52.670;6.750;2024-02-04T03:05:30;31.73;;;30.23;;
60292;SDS011;52402;52.670;6.750;2024-02-04T03:07:55;32.30;;;30.70;;
60292;SDS011;52402;52.670;6.750;2024-02-04T03:10:21;32.67;;;31.08;;
60292;SDS011;52402;52.670;6.750;2024-02-04T03:12:46;31.80;;;30.30;;
60292;SDS011;52402;52.670;6.750;2024-02-04T03:15:12;32.75;;;31.15;;
60292;SDS011;52402;52.670;6.750;2024-02-04T03:17:38;31.83;;;30.33;;
60292;SDS011;52402;52.670;6.750;2024-02-04T03:20:03;30.45;;;28.95;;
60292;SDS011;52402;52.670;6.750;2024-02-04T03:22:29;32.22;;;30.65;;
60292;SDS011;52402;52.670;6.750;2024-02-04T03:24:55;32.33;;;30.73;;
60292;SDS011;52402;52.670;6.750;2024-02-04T03:27:20;33.35;;;31.73;;
60292;SDS011;52402;52.670;6.750;2024-02-04T03:29:46;32.65;;;31.05;;
60292;SDS011;52402;52.670;6.750;2024-02-04T03:32:12;31.35;;;29.85;;
60292;SDS011;52402;52.670;6.750;2024-02-04T03:34:37;32.97;;;31.38;;
60292;SDS011;52402;52.670;6.750;2024-02-04T03:37:04;32.05;;;30.45;;
60292;SDS011;52402;52.670;6.750;2024-02-04T03:39:30;31.65;;;30.05;;
60292;SDS011;52402;52.670;6.750;2024-02-04T03:41:56;31.77;;;30.17;;
60292;SDS011;52402;52.670;6.750;2024-02-04T03:44:22;32.10;;;30.52;;
60292;SDS011;52402;52.670;6.750;2024-02-04T03:46:48;31.45;;;29.95;;
60292;SDS011;52402;52.670;6.750;2024-02-04T03:49:15;30.10;;;28.60;;
60292;SDS011;52402;52.670;6.750;2024-02-04T03:51:40;30.30;;;28.80;;
60292;SDS011;52402;52.670;6.750;2024-02-04T03:54:08;30.40;;;28.90;;
60292;SDS011;52402;52.670;6.750;2024-02-04T03:56:34;28.77;;;27.38;;
60292;SDS011;52402;52.670;6.750;2024-02-04T03:58:59;28.55;;;27.15;;
60292;SDS011;52402;52.670;6.750;2024-02-04T04:01:31;28.50;;;27.10;;
60292;SDS011;52402;52.670;6.750;2024-02-04T04:03:57;28.10;;;26.80;;
60292;SDS011;52402;52.670;6.750;2024-02-04T04:06:22;27.95;;;26.65;;
60292;SDS011;52402;52.670;6.750;2024-02-04T04:08:48;28.55;;;27.20;;
60292;SDS011;52402;52.670;6.750;2024-02-04T04:11:13;29.70;;;28.30;;
60292;SDS011;52402;52.670;6.750;2024-02-04T04:13:39;28.48;;;27.13;;
60292;SDS011;52402;52.670;6.750;2024-02-04T04:16:05;27.65;;;26.35;;
60292;SDS011;52402;52.670;6.750;2024-02-04T04:18:31;27.38;;;26.08;;
60292;SDS011;52402;52.670;6.750;2024-02-04T04:20:56;28.10;;;26.80;;
60292;SDS011;52402;52.670;6.750;2024-02-04T04:23:22;26.42;;;25.23;;
60292;SDS011;52402;52.670;6.750;2024-02-04T04:25:48;27.33;;;26.02;;
60292;SDS011;52402;52.670;6.750;2024-02-04T04:28:13;26.15;;;24.95;;
60292;SDS011;52402;52.670;6.750;2024-02-04T04:30:39;27.15;;;25.85;;
60292;SDS011;52402;52.670;6.750;2024-02-04T04:33:05;27.08;;;25.77;;
60292;SDS011;52402;52.670;6.750;2024-02-04T04:35:31;28.55;;;27.25;;
60292;SDS011;52402;52.670;6.750;2024-02-04T04:37:57;28.08;;;26.77;;
60292;SDS011;52402;52.670;6.750;2024-02-04T04:40:23;27.20;;;25.90;;
60292;SDS011;52402;52.670;6.750;2024-02-04T04:42:48;28.27;;;26.98;;
60292;SDS011;52402;52.670;6.750;2024-02-04T04:45:14;27.08;;;25.77;;
60292;SDS011;52402;52.670;6.750;2024-02-04T04:47:40;26.38;;;25.17;;
60292;SDS011;52402;52.670;6.750;2024-02-04T04:50:06;27.40;;;26.10;;
60292;SDS011;52402;52.670;6.750;2024-02-04T04:52:31;26.42;;;25.23;;
60292;SDS011;52402;52.670;6.750;2024-02-04T04:54:57;26.90;;;25.65;;
60292;SDS011;52402;52.670;6.750;2024-02-04T04:57:23;26.70;;;25.50;;
60292;SDS011;52402;52.670;6.750;2024-02-04T04:59:48;26.98;;;25.67;;
60292;SDS011;52402;52.670;6.750;2024-02-04T05:02:14;27.02;;;25.77;;
60292;SDS011;52402;52.670;6.750;2024-02-04T05:04:42;26.88;;;25.65;;
60292;SDS011;52402;52.670;6.750;2024-02-04T05:07:09;25.67;;;24.48;;
60292;SDS011;52402;52.670;6.750;2024-02-04T05:09:36;26.23;;;25.02;;
60292;SDS011;52402;52.670;6.750;2024-02-04T05:12:06;26.17;;;24.98;;
60292;SDS011;52402;52.670;6.750;2024-02-04T05:14:33;26.33;;;25.13;;
60292;SDS011;52402;52.670;6.750;2024-02-04T05:16:58;27.50;;;26.20;;
60292;SDS011;52402;52.670;6.750;2024-02-04T05:19:24;26.20;;;25.00;;
60292;SDS011;52402;52.670;6.750;2024-02-04T05:21:50;26.58;;;25.38;;
60292;SDS011;52402;52.670;6.750;2024-02-04T05:24:15;26.25;;;25.05;;
60292;SDS011;52402;52.670;6.750;2024-02-04T05:26:41;25.55;;;24.35;;
60292;SDS011;52402;52.670;6.750;2024-02-04T05:29:08;27.67;;;26.38;;
60292;SDS011;52402;52.670;6.750;2024-02-04T05:31:33;26.65;;;25.45;;
60292;SDS011;52402;52.670;6.750;2024-02-04T05:34:05;25.48;;;24.27;;
60292;SDS011;52402;52.670;6.750;2024-02-04T05:36:32;24.98;;;23.77;;
60292;SDS011;52402;52.670;6.750;2024-02-04T05:39:08;23.40;;;22.30;;
60292;SDS011;52402;52.670;6.750;2024-02-04T05:41:40;23.95;;;22.85;;
60292;SDS011;52402;52.670;6.750;2024-02-04T05:44:07;21.52;;;20.52;;
60292;SDS011;52402;52.670;6.750;2024-02-04T05:46:36;22.30;;;21.23;;
60292;SDS011;52402;52.670;6.750;2024-02-04T05:49:02;21.55;;;20.55;;
60292;SDS011;52402;52.670;6.750;2024-02-04T05:51:27;21.65;;;20.65;;
60292;SDS011;52402;52.670;6.750;2024-02-04T05:53:54;22.40;;;21.30;;
60292;SDS011;52402;52.670;6.750;2024-02-04T05:56:19;21.73;;;20.73;;
60292;SDS011;52402;52.670;6.750;2024-02-04T05:58:46;20.45;;;19.45;;
60292;SDS011;52402;52.670;6.750;2024-02-04T06:01:12;20.67;;;19.67;;
60292;SDS011;52402;52.670;6.750;2024-02-04T06:03:37;21.10;;;20.10;;
60292;SDS011;52402;52.670;6.750;2024-02-04T06:06:03;20.77;;;19.77;;
60292;SDS011;52402;52.670;6.750;2024-02-04T06:08:29;21.13;;;20.13;;
60292;SDS011;52402;52.670;6.750;2024-02-04T06:10:55;21.15;;;20.15;;
60292;SDS011;52402;52.670;6.750;2024-02-04T06:13:20;21.73;;;20.73;;
60292;SDS011;52402;52.670;6.750;2024-02-04T06:15:47;21.38;;;20.38;;
60292;SDS011;52402;52.670;6.750;2024-02-04T06:18:13;20.85;;;19.85;;
60292;SDS011;52402;52.670;6.750;2024-02-04T06:20:39;19.55;;;18.63;;
60292;SDS011;52402;52.670;6.750;2024-02-04T06:23:04;21.63;;;20.63;;
60292;SDS011;52402;52.670;6.750;2024-02-04T06:25:30;20.15;;;19.15;;
60292;SDS011;52402;52.670;6.750;2024-02-04T06:27:55;20.90;;;19.90;;
60292;SDS011;52402;52.670;6.750;2024-02-04T06:30:21;19.92;;;18.92;;
60292;SDS011;52402;52.670;6.750;2024-02-04T06:32:49;19.75;;;18.75;;
60292;SDS011;52402;52.670;6.750;2024-02-04T06:35:15;18.67;;;17.77;;
60292;SDS011;52402;52.670;6.750;2024-02-04T06:37:41;19.27;;;18.38;;
60292;SDS011;52402;52.670;6.750;2024-02-04T06:40:10;18.88;;;17.98;;
60292;SDS011;52402;52.670;6.750;2024-02-04T06:42:36;18.35;;;17.45;;
60292;SDS011;52402;52.670;6.750;2024-02-04T06:45:01;18.75;;;17.85;;
60292;SDS011;52402;52.670;6.750;2024-02-04T06:47:27;19.05;;;18.15;;
60292;SDS011;52402;52.670;6.750;2024-02-04T06:49:54;18.50;;;17.60;;
60292;SDS011;52402;52.670;6.750;2024-02-04T06:52:20;18.83;;;17.92;;
60292;SDS011;52402;52.670;6.750;2024-02-04T06:54:46;19.13;;;18.20;;
60292;SDS011;52402;52.670;6.750;2024-02-04T06:57:13;18.98;;;18.08;;
60292;SDS011;52402;52.670;6.750;2024-02-04T06:59:39;18.80;;;17.90;;
60292;SDS011;52402;52.670;6.750;2024-02-04T07:02:05;18.83;;;17.92;;
60292;SDS011;52402;52.670;6.750;2024-02-04T07:04:30;19.33;;;18.35;;
60292;SDS011;52402;52.670;6.750;2024-02-04T07:06:58;18.70;;;17.80;;
60292;SDS011;52402;52.670;6.750;2024-02-04T07:09:25;18.83;;;17.92;;
60292;SDS011;52402;52.670;6.750;2024-02-04T07:11:51;18.30;;;17.40;;
60292;SDS011;52402;52.670;6.750;2024-02-04T07:14:16;18.55;;;17.65;;
60292;SDS011;52402;52.670;6.750;2024-02-04T07:16:42;18.00;;;17.10;;
60292;SDS011;52402;52.670;6.750;2024-02-04T07:19:07;20.10;;;19.10;;
60292;SDS011;52402;52.670;6.750;2024-02-04T07:21:33;19.63;;;18.63;;
60292;SDS011;52402;52.670;6.750;2024-02-04T07:23:59;19.15;;;18.15;;
60292;SDS011;52402;52.670;6.750;2024-02-04T07:26:24;19.10;;;18.10;;
60292;SDS011;52402;52.670;6.750;2024-02-04T07:28:50;18.65;;;17.75;;
60292;SDS011;52402;52.670;6.750;2024-02-04T07:31:15;18.90;;;17.90;;
60292;SDS011;52402;52.670;6.750;2024-02-04T07:33:41;19.40;;;18.40;;
60292;SDS011;52402;52.670;6.750;2024-02-04T07:36:07;19.17;;;18.17;;
60292;SDS011;52402;52.670;6.750;2024-02-04T07:38:33;19.70;;;18.70;;
60292;SDS011;52402;52.670;6.750;2024-02-04T07:40:59;19.52;;;18.52;;
60292;SDS011;52402;52.670;6.750;2024-02-04T07:43:25;19.92;;;18.92;;
60292;SDS011;52402;52.670;6.750;2024-02-04T07:45:50;19.50;;;18.50;;
60292;SDS011;52402;52.670;6.750;2024-02-04T07:48:16;19.25;;;18.25;;
60292;SDS011;52402;52.670;6.750;2024-02-04T07:50:42;19.80;;;18.80;;
60292;SDS011;52402;52.670;6.750;2024-02-04T07:53:08;19.80;;;18.80;;
60292;SDS011;52402;52.670;6.750;2024-02-04T07:55:34;19.90;;;18.90;;
60292;SDS011;52402;52.670;6.750;2024-02-04T07:57:59;19.10;;;18.10;;
60292;SDS011;52402;52.670;6.750;2024-02-04T08:00:26;18.45;;;17.45;;
60292;SDS011;52402;52.670;6.750;2024-02-04T08:02:52;17.95;;;17.05;;
60292;SDS011;52402;52.670;6.750;2024-02-04T08:05:19;18.40;;;17.50;;
60292;SDS011;52402;52.670;6.750;2024-02-04T08:07:46;18.38;;;17.45;;
60292;SDS011;52402;52.670;6.750;2024-02-04T08:10:12;18.83;;;17.83;;
60292;SDS011;52402;52.670;6.750;2024-02-04T08:12:37;19.20;;;18.20;;
60292;SDS011;52402;52.670;6.750;2024-02-04T08:15:03;20.13;;;19.13;;
60292;SDS011;52402;52.670;6.750;2024-02-04T08:17:30;19.85;;;18.85;;
60292;SDS011;52402;52.670;6.750;2024-02-04T08:19:56;20.58;;;19.48;;
60292;SDS011;52402;52.670;6.750;2024-02-04T08:22:24;19.15;;;18.15;;
60292;SDS011;52402;52.670;6.750;2024-02-04T08:24:50;19.45;;;18.45;;
60292;SDS011;52402;52.670;6.750;2024-02-04T08:27:16;18.65;;;17.65;;
60292;SDS011;52402;52.670;6.750;2024-02-04T08:29:43;19.15;;;18.15;;
60292;SDS011;52402;52.670;6.750;2024-02-04T08:32:08;18.95;;;17.95;;
60292;SDS011;52402;52.670;6.750;2024-02-04T08:34:34;19.73;;;18.73;;
60292;SDS011;52402;52.670;6.750;2024-02-04T08:37:00;19.40;;;18.40;;
60292;SDS011;52402;52.670;6.750;2024-02-04T08:39:25;19.27;;;18.27;;
60292;SDS011;52402;52.670;6.750;2024-02-04T08:41:51;19.05;;;18.05;;
60292;SDS011;52402;52.670;6.750;2024-02-04T08:44:17;19.08;;;18.08;;
60292;SDS011;52402;52.670;6.750;2024-02-04T08:46:44;19.73;;;18.73;;
60292;SDS011;52402;52.670;6.750;2024-02-04T08:49:10;19.02;;;18.02;;
60292;SDS011;52402;52.670;6.750;2024-02-04T08:51:35;19.45;;;18.45;;
60292;SDS011;52402;52.670;6.750;2024-02-04T08:54:01;18.92;;;17.92;;
60292;SDS011;52402;52.670;6.750;2024-02-04T08:56:27;19.00;;;18.00;;
60292;SDS011;52402;52.670;6.750;2024-02-04T08:58:53;19.73;;;18.73;;
60292;SDS011;52402;52.670;6.750;2024-02-04T09:01:18;19.13;;;18.13;;
60292;SDS011;52402;52.670;6.750;2024-02-04T09:03:45;19.38;;;18.38;;
60292;SDS011;52402;52.670;6.750;2024-02-04T09:06:11;19.13;;;18.13;;
60292;SDS011;52402;52.670;6.750;2024-02-04T09:08:37;19.27;;;18.27;;
60292;SDS011;52402;52.670;6.750;2024-02-04T09:11:02;19.13;;;18.13;;
60292;SDS011;52402;52.670;6.750;2024-02-04T09:13:28;19.80;;;18.70;;
60292;SDS011;52402;52.670;6.750;2024-02-04T09:15:53;19.02;;;18.02;;
60292;SDS011;52402;52.670;6.750;2024-02-04T09:18:19;19.40;;;18.40;;
60292;SDS011;52402;52.670;6.750;2024-02-04T09:20:45;18.50;;;17.50;;
60292;SDS011;52402;52.670;6.750;2024-02-04T09:23:11;20.05;;;18.95;;
60292;SDS011;52402;52.670;6.750;2024-02-04T09:25:37;19.67;;;18.58;;
60292;SDS011;52402;52.670;6.750;2024-02-04T09:28:03;19.75;;;18.65;;
60292;SDS011;52402;52.670;6.750;2024-02-04T09:30:29;19.40;;;18.30;;
60292;SDS011;52402;52.670;6.750;2024-02-04T09:32:54;19.50;;;18.45;;
60292;SDS011;52402;52.670;6.750;2024-02-04T09:35:20;19.40;;;18.40;;
60292;SDS011;52402;52.670;6.750;2024-02-04T09:37:47;19.88;;;18.77;;
60292;SDS011;52402;52.670;6.750;2024-02-04T09:40:12;18.55;;;17.55;;
60292;SDS011;52402;52.670;6.750;2024-02-04T09:42:40;20.13;;;19.02;;
60292;SDS011;52402;52.670;6.750;2024-02-04T09:45:06;19.08;;;18.08;;
60292;SDS011;52402;52.670;6.750;2024-02-04T09:47:32;19.55;;;18.55;;
60292;SDS011;52402;52.670;6.750;2024-02-04T09:49:59;19.63;;;18.52;;
60292;SDS011;52402;52.670;6.750;2024-02-04T09:52:29;19.00;;;18.00;;
60292;SDS011;52402;52.670;6.750;2024-02-04T09:55:01;19.58;;;18.48;;
60292;SDS011;52402;52.670;6.750;2024-02-04T09:57:29;19.65;;;18.55;;
60292;SDS011;52402;52.670;6.750;2024-02-04T09:59:55;19.98;;;18.88;;
60292;SDS011;52402;52.670;6.750;2024-02-04T10:02:22;19.77;;;18.67;;
60292;SDS011;52402;52.670;6.750;2024-02-04T10:04:48;19.13;;;18.13;;
60292;SDS011;52402;52.670;6.750;2024-02-04T10:07:14;19.30;;;18.30;;
60292;SDS011;52402;52.670;6.750;2024-02-04T10:09:41;20.33;;;19.23;;
60292;SDS011;52402;52.670;6.750;2024-02-04T10:12:08;20.02;;;18.92;;
60292;SDS011;52402;52.670;6.750;2024-02-04T10:14:34;20.40;;;19.30;;
60292;SDS011;52402;52.670;6.750;2024-02-04T10:17:00;19.45;;;18.35;;
60292;SDS011;52402;52.670;6.750;2024-02-04T10:19:25;19.20;;;18.20;;
60292;SDS011;52402;52.670;6.750;2024-02-04T10:22:00;19.85;;;18.75;;
60292;SDS011;52402;52.670;6.750;2024-02-04T10:24:27;19.50;;;18.40;;
60292;SDS011;52402;52.670;6.750;2024-02-04T10:26:54;19.65;;;18.55;;
60292;SDS011;52402;52.670;6.750;2024-02-04T10:29:20;19.67;;;18.58;;
60292;SDS011;52402;52.670;6.750;2024-02-04T10:31:47;19.77;;;18.67;;
60292;SDS011;52402;52.670;6.750;2024-02-04T10:34:13;19.50;;;18.40;;
60292;SDS011;52402;52.670;6.750;2024-02-04T10:36:39;18.80;;;17.80;;
60292;SDS011;52402;52.670;6.750;2024-02-04T10:39:05;19.27;;;18.27;;
60292;SDS011;52402;52.670;6.750;2024-02-04T10:41:31;19.42;;;18.33;;
60292;SDS011;52402;52.670;6.750;2024-02-04T10:44:01;19.40;;;18.30;;
60292;SDS011;52402;52.670;6.750;2024-02-04T10:46:29;19.77;;;18.67;;
60292;SDS011;52402;52.670;6.750;2024-02-04T10:48:57;19.83;;;18.73;;
60292;SDS011;52402;52.670;6.750;2024-02-04T10:51:26;19.02;;;18.02;;
60292;SDS011;52402;52.670;6.750;2024-02-04T10:53:55;20.48;;;19.38;;
60292;SDS011;52402;52.670;6.750;2024-02-04T10:59:08;20.20;;;19.10;;
60292;SDS011;52402;52.670;6.750;2024-02-04T11:01:38;20.10;;;19.00;;
60292;SDS011;52402;52.670;6.750;2024-02-04T11:04:05;20.65;;;19.55;;
60292;SDS011;52402;52.670;6.750;2024-02-04T11:06:31;20.17;;;19.08;;
60292;SDS011;52402;52.670;6.750;2024-02-04T11:08:58;20.40;;;19.30;;
60292;SDS011;52402;52.670;6.750;2024-02-04T11:11:25;20.40;;;19.30;;
60292;SDS011;52402;52.670;6.750;2024-02-04T11:13:53;20.42;;;19.33;;
60292;SDS011;52402;52.670;6.750;2024-02-04T11:21:50;20.50;;;19.40;;
60292;SDS011;52402;52.670;6.750;2024-02-04T11:27:16;20.88;;;19.77;;
60292;SDS011;52402;52.670;6.750;2024-02-04T11:29:42;20.23;;;19.13;;
60292;SDS011;52402;52.670;6.750;2024-02-04T11:32:08;20.00;;;18.90;;
60292;SDS011;52402;52.670;6.750;2024-02-04T11:34:34;19.88;;;18.77;;
60292;SDS011;52402;52.670;6.750;2024-02-04T11:37:01;20.63;;;19.52;;
60292;SDS011;52402;52.670;6.750;2024-02-04T11:39:27;21.05;;;19.85;;
60292;SDS011;52402;52.670;6.750;2024-02-04T11:41:52;19.95;;;18.85;;
60292;SDS011;52402;52.670;6.750;2024-02-04T11:44:21;19.90;;;18.80;;
60292;SDS011;52402;52.670;6.750;2024-02-04T11:46:48;20.33;;;19.23;;
60292;SDS011;52402;52.670;6.750;2024-02-04T11:49:17;20.05;;;18.95;;
60292;SDS011;52402;52.670;6.750;2024-02-04T11:51:47;20.85;;;19.65;;
60292;SDS011;52402;52.670;6.750;2024-02-04T11:54:15;21.08;;;19.88;;
60292;SDS011;52402;52.670;6.750;2024-02-04T11:56:42;20.65;;;19.55;;
60292;SDS011;52402;52.670;6.750;2024-02-04T11:59:08;19.92;;;18.83;;
60292;SDS011;52402;52.670;6.750;2024-02-04T12:01:36;19.85;;;18.75;;
60292;SDS011;52402;52.670;6.750;2024-02-04T12:04:08;19.95;;;18.85;;
60292;SDS011;52402;52.670;6.750;2024-02-04T12:06:40;20.33;;;19.23;;
60292;SDS011;52402;52.670;6.750;2024-02-04T12:09:07;19.73;;;18.63;;
60292;SDS011;52402;52.670;6.750;2024-02-04T12:11:35;20.20;;;19.10;;
60292;SDS011;52402;52.670;6.750;2024-02-04T12:14:03;19.83;;;18.73;;
60292;SDS011;52402;52.670;6.750;2024-02-04T12:16:30;19.75;;;18.65;;
60292;SDS011;52402;52.670;6.750;2024-02-04T12:18:57;19.88;;;18.77;;
60292;SDS011;52402;52.670;6.750;2024-02-04T12:21:23;19.60;;;18.50;;
60292;SDS011;52402;52.670;6.750;2024-02-04T12:23:49;19.83;;;18.73;;
60292;SDS011;52402;52.670;6.750;2024-02-04T12:26:16;20.52;;;19.40;;
60292;SDS011;52402;52.670;6.750;2024-02-04T12:28:41;19.40;;;18.30;;
60292;SDS011;52402;52.670;6.750;2024-02-04T12:31:15;19.50;;;18.40;;
60292;SDS011;52402;52.670;6.750;2024-02-04T12:33:42;18.60;;;17.60;;
60292;SDS011;52402;52.670;6.750;2024-02-04T12:36:09;18.60;;;17.60;;
60292;SDS011;52402;52.670;6.750;2024-02-04T12:38:35;18.42;;;17.42;;
60292;SDS011;52402;52.670;6.750;2024-02-04T12:41:01;18.42;;;17.42;;
60292;SDS011;52402;52.670;6.750;2024-02-04T12:43:28;18.02;;;17.02;;
60292;SDS011;52402;52.670;6.750;2024-02-04T12:45:56;18.85;;;17.85;;
60292;SDS011;52402;52.670;6.750;2024-02-04T12:48:22;18.70;;;17.70;;
60292;SDS011;52402;52.670;6.750;2024-02-04T12:50:51;18.33;;;17.33;;
60292;SDS011;52402;52.670;6.750;2024-02-04T12:53:16;18.60;;;17.60;;
60292;SDS011;52402;52.670;6.750;2024-02-04T12:55:44;18.48;;;17.48;;
60292;SDS011;52402;52.670;6.750;2024-02-04T12:58:10;18.98;;;17.98;;
60292;SDS011;52402;52.670;6.750;2024-02-04T13:00:39;18.95;;;17.95;;
60292;SDS011;52402;52.670;6.750;2024-02-04T13:03:06;18.65;;;17.65;;
60292;SDS011;52402;52.670;6.750;2024-02-04T13:05:33;19.30;;;18.25;;
60292;SDS011;52402;52.670;6.750;2024-02-04T13:07:59;18.23;;;17.23;;
60292;SDS011;52402;52.670;6.750;2024-02-04T13:10:33;18.40;;;17.40;;
60292;SDS011;52402;52.670;6.750;2024-02-04T13:13:00;18.77;;;17.77;;
60292;SDS011;52402;52.670;6.750;2024-02-04T13:15:27;19.02;;;18.02;;
60292;SDS011;52402;52.670;6.750;2024-02-04T13:17:54;18.75;;;17.75;;
60292;SDS011;52402;52.670;6.750;2024-02-04T13:20:20;18.60;;;17.60;;
60292;SDS011;52402;52.670;6.750;2024-02-04T13:22:46;18.73;;;17.73;;
60292;SDS011;52402;52.670;6.750;2024-02-04T13:25:12;19.33;;;18.23;;
60292;SDS011;52402;52.670;6.750;2024-02-04T13:27:38;18.75;;;17.75;;
60292;SDS011;52402;52.670;6.750;2024-02-04T13:30:04;19.33;;;18.23;;
60292;SDS011;52402;52.670;6.750;2024-02-04T13:32:35;19.50;;;18.40;;
60292;SDS011;52402;52.670;6.750;2024-02-04T13:35:00;19.60;;;18.50;;
60292;SDS011;52402;52.670;6.750;2024-02-04T13:37:26;20.02;;;18.92;;
60292;SDS011;52402;52.670;6.750;2024-02-04T13:39:51;19.75;;;18.65;;
60292;SDS011;52402;52.670;6.750;2024-02-04T13:42:17;19.73;;;18.63;;
60292;SDS011;52402;52.670;6.750;2024-02-04T13:44:43;19.42;;;18.33;;
60292;SDS011;52402;52.670;6.750;2024-02-04T13:47:09;19.52;;;18.42;;
60292;SDS011;52402;52.670;6.750;2024-02-04T13:49:35;19.10;;;18.08;;
60292;SDS011;52402;52.670;6.750;2024-02-04T13:52:00;19.70;;;18.60;;
60292;SDS011;52402;52.670;6.750;2024-02-04T13:54:26;19.65;;;18.55;;
60292;SDS011;52402;52.670;6.750;2024-02-04T13:56:53;19.65;;;18.55;;
60292;SDS011;52402;52.670;6.750;2024-02-04T13:59:18;19.42;;;18.33;;
60292;SDS011;52402;52.670;6.750;2024-02-04T14:01:44;19.13;;;18.08;;
60292;SDS011;52402;52.670;6.750;2024-02-04T14:04:09;20.42;;;19.33;;
60292;SDS011;52402;52.670;6.750;2024-02-04T14:06:35;18.98;;;17.98;;
60292;SDS011;52402;52.670;6.750;2024-02-04T14:09:01;19.38;;;18.30;;
60292;SDS011;52402;52.670;6.750;2024-02-04T14:11:26;18.67;;;17.67;;
60292;SDS011;52402;52.670;6.750;2024-02-04T14:13:52;19.77;;;18.67;;
60292;SDS011;52402;52.670;6.750;2024-02-04T14:16:18;18.98;;;17.98;;
60292;SDS011;52402;52.670;6.750;2024-02-04T14:18:43;18.70;;;17.70;;
60292;SDS011;52402;52.670;6.750;2024-02-04T14:21:11;19.42;;;18.38;;
60292;SDS011;52402;52.670;6.750;2024-02-04T14:23:39;19.27;;;18.27;;
60292;SDS011;52402;52.670;6.750;2024-02-04T14:26:05;20.17;;;19.08;;
60292;SDS011;52402;52.670;6.750;2024-02-04T14:28:34;19.75;;;18.65;;
60292;SDS011;52402;52.670;6.750;2024-02-04T14:31:06;20.42;;;19.33;;
60292;SDS011;52402;52.670;6.750;2024-02-04T14:33:32;20.50;;;19.40;;